createdAt,value
2017-11-23T00:01:59.620Z,35.83
2017-11-23T00:04:30.581Z,34.43
2017-11-23T00:06:59.462Z,33.53
2017-11-23T00:09:28.411Z,24.73
2017-11-23T00:11:57.747Z,20.13
2017-11-23T00:14:26.842Z,21.07
2017-11-23T00:16:56.177Z,21.43
2017-11-23T00:19:25.016Z,18.90
2017-11-23T00:21:54.046Z,27.97
2017-11-23T00:24:23.167Z,26.87
2017-11-23T00:26:52.095Z,22.90
2017-11-23T00:29:21.340Z,24.70
2017-11-23T00:31:56.912Z,24.93
2017-11-23T00:37:00.479Z,24.97
2017-11-23T00:39:40.233Z,26.60
2017-11-23T00:42:09.245Z,24.40
2017-11-23T00:44:38.165Z,27.27
2017-11-23T00:47:07.285Z,23.57
2017-11-23T00:49:36.340Z,25.63
2017-11-23T00:52:07.819Z,28.63
2017-11-23T00:54:37.555Z,21.97
2017-11-23T00:57:06.622Z,21.67
2017-11-23T00:59:35.463Z,22.93
2017-11-23T01:02:05.292Z,22.77
2017-11-23T01:04:34.426Z,19.30
2017-11-23T01:07:03.250Z,21.43
2017-11-23T01:09:37.362Z,25.93
2017-11-23T01:12:06.213Z,20.73
2017-11-23T01:14:35.467Z,18.80
2017-11-23T01:17:04.461Z,23.60
2017-11-23T01:19:33.368Z,18.93
2017-11-23T01:24:52.401Z,19.07
2017-11-23T01:27:21.342Z,17.97
2017-11-23T01:29:50.290Z,20.13
2017-11-23T01:32:19.355Z,27.00
2017-11-23T01:34:48.200Z,22.73
2017-11-23T01:37:20.145Z,19.20
2017-11-23T01:39:55.127Z,21.00
2017-11-23T01:42:25.809Z,22.60
2017-11-23T01:44:54.934Z,24.17
2017-11-23T01:47:24.209Z,20.77
2017-11-23T01:49:54.735Z,23.77
2017-11-23T01:52:23.770Z,23.13
2017-11-23T01:54:52.739Z,22.93
2017-11-23T01:57:21.754Z,30.00
2017-11-23T01:59:50.840Z,22.10
2017-11-23T02:02:19.739Z,21.13
2017-11-23T02:04:48.838Z,17.83
2017-11-23T02:07:17.857Z,16.77
2017-11-23T02:09:46.835Z,20.50
2017-11-23T02:12:15.987Z,19.03
2017-11-23T02:14:50.161Z,18.37
2017-11-23T02:17:19.428Z,19.87
2017-11-23T02:19:49.761Z,18.03
2017-11-23T02:22:18.776Z,22.03
2017-11-23T02:24:48.898Z,19.20
2017-11-23T02:27:17.874Z,19.80
2017-11-23T02:29:46.990Z,20.37
2017-11-23T02:32:16.983Z,20.03
2017-11-23T02:34:46.080Z,19.07
2017-11-23T02:37:15.128Z,19.20
2017-11-23T02:39:46.947Z,20.63
2017-11-23T02:42:16.000Z,19.23
2017-11-23T02:44:45.025Z,23.37
2017-11-23T02:47:14.301Z,19.60
2017-11-23T02:49:43.310Z,22.57
2017-11-23T02:52:12.451Z,26.47
2017-11-23T02:54:41.807Z,19.67
2017-11-23T02:57:16.470Z,23.00
2017-11-23T02:59:48.414Z,22.90
2017-11-23T03:02:17.437Z,21.23
2017-11-23T03:04:46.461Z,21.80
2017-11-23T03:07:20.839Z,23.40
2017-11-23T03:09:53.497Z,23.90
2017-11-23T03:12:22.853Z,22.17
2017-11-23T03:14:51.692Z,20.23
2017-11-23T03:17:20.697Z,23.50
2017-11-23T03:19:52.868Z,19.30
2017-11-23T03:22:21.844Z,21.70
2017-11-23T03:24:50.693Z,16.67
2017-11-23T03:27:19.973Z,18.60
2017-11-23T03:29:49.046Z,19.27
2017-11-23T03:32:18.066Z,18.50
2017-11-23T03:34:46.942Z,21.93
2017-11-23T03:37:15.974Z,19.53
2017-11-23T03:39:44.803Z,21.70
2017-11-23T03:42:19.898Z,20.87
2017-11-23T03:44:49.645Z,18.53
2017-11-23T03:47:18.902Z,21.20
2017-11-23T03:49:48.799Z,20.10
2017-11-23T03:52:17.681Z,19.50
2017-11-23T03:54:46.664Z,19.07
2017-11-23T03:57:17.274Z,23.13
2017-11-23T03:59:46.221Z,21.77
2017-11-23T04:02:15.355Z,23.00
2017-11-23T04:07:17.855Z,21.03
2017-11-23T04:09:46.745Z,24.40
2017-11-23T04:12:16.589Z,20.17
2017-11-23T04:14:45.577Z,23.27
2017-11-23T04:17:14.745Z,20.40
2017-11-23T04:19:44.552Z,20.97
2017-11-23T04:22:13.545Z,22.60
2017-11-23T04:24:42.438Z,20.83
2017-11-23T04:27:13.151Z,21.00
2017-11-23T04:29:42.145Z,23.00
2017-11-23T04:32:11.001Z,20.23
2017-11-23T04:34:39.980Z,22.20
2017-11-23T04:37:09.030Z,19.80
2017-11-23T04:39:37.926Z,18.93
2017-11-23T04:44:40.899Z,19.83
2017-11-23T04:47:09.850Z,20.40
2017-11-23T04:49:38.731Z,23.50
2017-11-23T04:52:10.119Z,21.60
2017-11-23T04:54:40.960Z,23.90
2017-11-23T04:57:10.071Z,20.50
2017-11-23T04:59:39.324Z,23.33
2017-11-23T05:02:08.235Z,24.00
2017-11-23T05:04:37.159Z,22.17
2017-11-23T05:07:06.068Z,25.33
2017-11-23T05:09:35.017Z,28.30
2017-11-23T05:12:03.848Z,24.67
2017-11-23T05:14:32.767Z,25.40
2017-11-23T05:17:02.510Z,23.63
2017-11-23T05:19:31.333Z,23.43
2017-11-23T05:22:00.212Z,20.57
2017-11-23T05:24:29.345Z,23.37
2017-11-23T05:27:04.175Z,26.87
2017-11-23T05:29:34.348Z,24.57
2017-11-23T05:32:04.499Z,21.67
2017-11-23T05:34:33.380Z,24.73
2017-11-23T05:37:03.536Z,28.07
2017-11-23T05:39:32.370Z,24.70
2017-11-23T05:42:01.696Z,22.83
2017-11-23T05:44:32.907Z,21.70
2017-11-23T05:47:07.568Z,23.10
2017-11-23T05:49:36.723Z,23.23
2017-11-23T05:52:05.899Z,26.87
2017-11-23T05:54:34.939Z,24.43
2017-11-23T05:57:04.696Z,28.07
2017-11-23T05:59:35.879Z,26.67
2017-11-23T06:02:08.475Z,24.17
2017-11-23T06:04:37.504Z,25.97
2017-11-23T06:07:11.463Z,31.10
2017-11-23T06:09:40.404Z,32.80
2017-11-23T06:12:10.218Z,29.00
2017-11-23T06:14:39.166Z,23.97
2017-11-23T06:17:07.971Z,23.70
2017-11-23T06:19:37.982Z,31.57
2017-11-23T06:22:09.176Z,28.67
2017-11-23T06:24:47.625Z,34.20
2017-11-23T06:27:16.591Z,39.37
2017-11-23T06:29:45.494Z,43.13
2017-11-23T06:32:14.282Z,48.17
2017-11-23T06:34:44.777Z,46.07
2017-11-23T06:37:14.541Z,33.03
2017-11-23T06:39:43.859Z,30.27
2017-11-23T06:42:12.775Z,31.93
2017-11-23T06:44:41.621Z,29.43
2017-11-23T06:47:10.522Z,29.17
2017-11-23T06:49:39.490Z,23.90
2017-11-23T06:52:08.313Z,26.17
2017-11-23T06:54:37.284Z,23.80
2017-11-23T06:57:07.153Z,25.83
2017-11-23T06:59:35.997Z,32.57
2017-11-23T07:02:05.004Z,21.80
2017-11-23T07:04:34.818Z,23.70
2017-11-23T07:07:03.807Z,25.73
2017-11-23T07:09:32.862Z,28.00
2017-11-23T07:12:02.843Z,24.13
2017-11-23T07:14:31.813Z,28.20
2017-11-23T07:17:00.770Z,20.83
2017-11-23T07:19:29.629Z,21.20
2017-11-23T07:21:58.526Z,19.77
2017-11-23T07:24:27.356Z,20.80
2017-11-23T07:26:58.216Z,21.93
2017-11-23T07:29:27.090Z,23.70
2017-11-23T07:31:56.470Z,23.07
2017-11-23T07:34:27.286Z,15.70
2017-11-23T07:36:56.141Z,20.73
2017-11-23T07:39:25.301Z,17.17
2017-11-23T07:41:54.334Z,16.70
2017-11-23T07:44:23.166Z,17.73
2017-11-23T07:46:51.985Z,14.67
2017-11-23T07:49:20.859Z,15.00
2017-11-23T07:51:50.080Z,12.50
2017-11-23T07:54:19.008Z,14.73
2017-11-23T07:56:48.114Z,13.33
2017-11-23T07:59:17.039Z,13.00
2017-11-23T08:01:45.869Z,14.60
2017-11-23T08:06:49.133Z,11.43
2017-11-23T08:09:17.967Z,13.50
2017-11-23T08:11:47.665Z,10.67
2017-11-23T08:14:16.528Z,13.53
2017-11-23T08:16:45.364Z,10.57
2017-11-23T08:19:14.302Z,12.97
2017-11-23T08:21:43.336Z,11.90
2017-11-23T08:24:12.207Z,12.87
2017-11-23T08:26:41.067Z,15.87
2017-11-23T08:29:09.939Z,16.23
2017-11-23T08:31:38.900Z,15.30
2017-11-23T08:34:07.816Z,15.23
2017-11-23T08:36:36.906Z,13.90
2017-11-23T08:39:06.835Z,15.10
2017-11-23T08:41:36.672Z,13.07
2017-11-23T08:44:05.542Z,12.33
2017-11-23T08:46:36.723Z,13.97
2017-11-23T08:49:05.599Z,14.17
2017-11-23T08:51:34.404Z,15.53
2017-11-23T08:54:03.323Z,13.57
2017-11-23T08:56:37.359Z,17.57
2017-11-23T08:59:06.683Z,14.00
2017-11-23T09:01:44.044Z,12.87
2017-11-23T09:04:13.360Z,11.57
2017-11-23T09:06:42.849Z,13.23
2017-11-23T09:09:13.079Z,14.77
2017-11-23T09:11:42.038Z,14.30
2017-11-23T09:14:10.955Z,17.40
2017-11-23T09:16:40.726Z,17.27
2017-11-23T09:19:09.638Z,16.00
2017-11-23T09:21:38.622Z,15.30
2017-11-23T09:24:07.567Z,14.70
2017-11-23T09:26:36.452Z,13.93
2017-11-23T09:29:05.373Z,16.17
2017-11-23T09:31:34.342Z,12.87
2017-11-23T09:34:03.260Z,12.80
2017-11-23T09:36:32.256Z,15.90
2017-11-23T09:39:01.276Z,14.83
2017-11-23T09:41:30.228Z,13.33
2017-11-23T09:43:59.142Z,13.80
2017-11-23T09:46:28.977Z,12.80
2017-11-23T09:48:57.899Z,15.20
2017-11-23T09:51:26.824Z,19.67
2017-11-23T09:53:58.416Z,17.63
2017-11-23T09:56:27.306Z,22.53
2017-11-23T09:58:56.240Z,13.10
2017-11-23T10:01:25.234Z,15.73
2017-11-23T10:03:54.033Z,17.70
2017-11-23T10:06:22.865Z,14.60
2017-11-23T10:08:51.783Z,12.87
2017-11-23T10:11:20.766Z,14.37
2017-11-23T10:13:49.657Z,16.33
2017-11-23T10:16:18.582Z,18.93
2017-11-23T10:18:47.537Z,19.60
2017-11-23T10:21:16.459Z,15.70
2017-11-23T10:23:45.332Z,16.57
2017-11-23T10:26:14.231Z,14.20
2017-11-23T10:28:43.108Z,17.50
2017-11-23T10:31:13.662Z,17.80
2017-11-23T10:33:42.549Z,16.33
2017-11-23T10:36:11.482Z,13.53
2017-11-23T10:38:40.453Z,16.80
2017-11-23T10:41:09.385Z,19.00
2017-11-23T10:43:38.256Z,15.20
2017-11-23T10:46:07.163Z,17.17
2017-11-23T10:48:36.116Z,16.47
2017-11-23T10:51:05.196Z,13.17
2017-11-23T10:53:35.853Z,15.10
2017-11-23T10:56:04.675Z,13.83
2017-11-23T10:58:33.503Z,13.60
2017-11-23T11:01:02.503Z,16.10
2017-11-23T11:03:31.422Z,20.60
2017-11-23T11:06:00.298Z,13.37
2017-11-23T11:08:29.250Z,13.77
2017-11-23T11:10:58.152Z,13.03
2017-11-23T11:13:27.004Z,12.30
2017-11-23T11:15:55.879Z,13.80
2017-11-23T11:18:24.822Z,15.00
2017-11-23T11:20:53.703Z,14.00
2017-11-23T11:23:23.382Z,14.27
2017-11-23T11:25:52.297Z,14.47
2017-11-23T11:28:21.108Z,15.23
2017-11-23T11:30:51.605Z,21.23
2017-11-23T11:33:20.571Z,16.40
2017-11-23T11:35:49.546Z,12.70
2017-11-23T11:38:20.206Z,17.13
2017-11-23T11:40:49.035Z,14.93
2017-11-23T11:43:17.944Z,15.20
2017-11-23T11:57:47.220Z,11.50
2017-11-23T12:00:16.080Z,12.77
2017-11-23T12:02:45.006Z,11.97
2017-11-23T12:05:15.558Z,13.40
2017-11-23T12:07:44.408Z,14.13
2017-11-23T12:10:13.280Z,15.80
2017-11-23T12:12:47.589Z,26.70
2017-11-23T12:18:27.838Z,22.60
2017-11-23T12:21:08.756Z,11.10
2017-11-23T12:23:45.913Z,10.77
2017-11-23T12:26:14.944Z,11.87
2017-11-23T12:28:56.655Z,12.20
2017-11-23T12:31:25.529Z,10.83
2017-11-23T12:33:54.430Z,13.17
2017-11-23T12:36:25.550Z,14.40
2017-11-23T12:38:54.417Z,14.77
2017-11-23T12:41:23.364Z,13.90
2017-11-23T12:43:52.412Z,15.93
2017-11-23T12:46:21.201Z,13.50
2017-11-23T12:48:50.079Z,12.37
2017-11-23T12:51:18.944Z,19.10
2017-11-23T12:53:47.873Z,17.30
2017-11-23T12:56:16.784Z,14.27
2017-11-23T12:58:45.666Z,13.60
2017-11-23T13:01:14.515Z,12.60
2017-11-23T13:03:43.358Z,13.47
2017-11-23T13:06:12.269Z,12.70
2017-11-23T13:08:41.189Z,13.03
2017-11-23T13:11:09.987Z,12.87
2017-11-23T13:16:13.389Z,14.93
2017-11-23T13:18:42.197Z,20.10
2017-11-23T13:21:11.108Z,15.10
2017-11-23T13:23:39.952Z,13.40
2017-11-23T13:26:08.866Z,12.47
2017-11-23T13:31:11.816Z,14.70
2017-11-23T13:33:40.707Z,13.93
2017-11-23T13:36:09.683Z,14.97
2017-11-23T13:38:38.538Z,17.60
2017-11-23T13:41:07.331Z,19.60
2017-11-23T13:43:36.999Z,38.17
2017-11-23T13:46:05.844Z,19.53
2017-11-23T13:48:34.739Z,30.30
2017-11-23T13:51:03.741Z,52.90
2017-11-23T13:53:32.700Z,40.50
2017-11-23T13:56:01.543Z,42.47
2017-11-23T13:58:31.785Z,33.60
2017-11-23T14:01:00.601Z,25.33
2017-11-23T14:03:29.635Z,23.20
2017-11-23T14:05:59.762Z,21.23
2017-11-23T14:08:28.664Z,27.63
2017-11-23T14:10:57.527Z,37.10
2017-11-23T14:13:28.097Z,30.27
2017-11-23T14:15:56.992Z,44.10
2017-11-23T14:18:25.823Z,29.63
2017-11-23T14:20:54.731Z,22.60
2017-11-23T14:23:23.573Z,22.70
2017-11-23T14:25:52.403Z,41.77
2017-11-23T14:28:21.522Z,47.40
2017-11-23T14:30:50.356Z,40.83
2017-11-23T14:33:19.201Z,45.37
2017-11-23T14:35:49.920Z,32.07
2017-11-23T14:38:18.882Z,29.40
2017-11-23T14:40:47.692Z,27.63
2017-11-23T14:43:16.530Z,28.13
2017-11-23T14:45:45.368Z,23.83
2017-11-23T14:48:14.264Z,31.13
2017-11-23T14:50:43.337Z,33.53
2017-11-23T14:53:12.175Z,30.87
2017-11-23T14:55:40.996Z,32.07
2017-11-23T14:58:10.705Z,38.60
2017-11-23T15:00:39.635Z,41.43
2017-11-23T15:03:08.528Z,46.20
2017-11-23T15:05:37.423Z,68.77
2017-11-23T15:08:06.206Z,47.80
2017-11-23T15:10:35.039Z,38.07
2017-11-23T15:13:04.844Z,28.90
2017-11-23T15:15:33.732Z,33.10
2017-11-23T15:18:02.623Z,34.73
2017-11-23T15:20:32.564Z,37.10
2017-11-23T15:23:01.362Z,36.10
2017-11-23T15:25:30.213Z,40.57
2017-11-23T15:28:00.061Z,50.97
2017-11-23T15:30:29.036Z,47.23
2017-11-23T15:32:57.923Z,49.27
2017-11-23T15:35:26.812Z,44.13
2017-11-23T15:37:55.640Z,48.20
2017-11-23T15:40:24.459Z,48.33
2017-11-23T15:42:56.556Z,51.43
2017-11-23T15:45:25.378Z,55.93
2017-11-23T15:47:54.232Z,53.97
2017-11-23T15:50:23.139Z,58.53
2017-11-23T15:52:52.026Z,66.30
2017-11-23T15:55:21.021Z,70.53
2017-11-23T15:57:49.866Z,61.30
2017-11-23T16:00:18.744Z,68.70
2017-11-23T16:02:47.716Z,69.17
2017-11-23T16:05:16.626Z,77.90
2017-11-23T16:07:45.599Z,66.83
2017-11-23T16:10:14.504Z,96.27
2017-11-23T16:12:44.407Z,109.07
2017-11-23T16:15:13.324Z,97.33
2017-11-23T16:17:42.203Z,96.73
2017-11-23T16:20:11.162Z,93.50
2017-11-23T16:22:40.771Z,85.83
2017-11-23T16:25:09.621Z,93.13
2017-11-23T16:27:40.300Z,97.73
2017-11-23T16:30:09.275Z,99.97
2017-11-23T16:32:38.150Z,78.20
2017-11-23T16:37:41.559Z,78.43
2017-11-23T16:40:21.247Z,88.77
2017-11-23T16:43:05.845Z,86.33
2017-11-23T16:45:40.428Z,90.70
2017-11-23T16:48:14.781Z,95.70
2017-11-23T16:50:50.494Z,95.67
2017-11-23T16:53:24.955Z,90.43
2017-11-23T16:59:22.238Z,92.10
2017-11-23T17:01:56.573Z,112.07
2017-11-23T17:04:47.367Z,114.87
2017-11-23T17:07:22.932Z,109.47
2017-11-23T17:10:02.495Z,99.10
2017-11-23T17:12:41.708Z,116.90
2017-11-23T17:15:17.190Z,140.63
2017-11-23T17:17:54.997Z,139.97
2017-11-23T17:20:23.834Z,116.10
2017-11-23T17:22:52.697Z,116.80
2017-11-23T17:25:22.484Z,109.87
2017-11-23T17:27:51.503Z,115.23
2017-11-23T17:30:20.366Z,116.97
2017-11-23T17:32:49.440Z,111.07
2017-11-23T17:35:18.355Z,113.43
2017-11-23T17:37:47.231Z,125.37
2017-11-23T17:40:17.161Z,106.37
2017-11-23T17:42:46.088Z,100.67
2017-11-23T17:45:14.936Z,86.17
2017-11-23T17:47:43.886Z,93.63
2017-11-23T17:50:12.824Z,92.27
2017-11-23T17:52:41.867Z,97.77
2017-11-23T17:55:13.415Z,90.60
2017-11-23T17:57:42.306Z,94.57
2017-11-23T18:00:11.167Z,99.67
2017-11-23T18:02:40.183Z,117.93
2017-11-23T18:05:09.073Z,101.47
2017-11-23T18:07:37.945Z,91.37
2017-11-23T18:10:06.854Z,69.27
2017-11-23T18:12:35.781Z,86.87
2017-11-23T18:15:04.672Z,79.07
2017-11-23T18:20:08.316Z,88.97
2017-11-23T18:22:38.494Z,90.40
2017-11-23T18:25:07.693Z,90.77
2017-11-23T18:27:36.983Z,86.17
2017-11-23T18:30:11.453Z,69.67
2017-11-23T18:32:40.627Z,66.50
2017-11-23T18:35:09.537Z,60.13
2017-11-23T18:37:40.186Z,59.47
2017-11-23T18:40:08.311Z,54.70
2017-11-23T18:42:37.025Z,65.23
2017-11-23T18:45:06.042Z,81.17
2017-11-23T18:47:35.044Z,128.03
2017-11-23T18:50:03.924Z,104.77
2017-11-23T18:52:32.806Z,75.77
2017-11-23T18:55:01.725Z,70.87
2017-11-23T18:57:30.561Z,81.17
2017-11-23T19:00:00.543Z,70.60
2017-11-23T19:02:29.430Z,69.90
2017-11-23T19:04:58.277Z,61.27
2017-11-23T19:07:28.108Z,58.20
2017-11-23T19:09:56.944Z,91.13
2017-11-23T19:12:25.807Z,93.03
2017-11-23T19:14:54.818Z,94.50
2017-11-23T19:17:23.640Z,93.43
2017-11-23T19:19:54.277Z,87.50
2017-11-23T19:22:26.608Z,91.07
2017-11-23T19:25:01.567Z,98.60
2017-11-23T19:27:31.166Z,95.40
2017-11-23T19:30:00.206Z,104.97
2017-11-23T19:32:29.187Z,114.07
2017-11-23T19:34:58.213Z,109.97
2017-11-23T19:37:27.068Z,142.60
2017-11-23T19:39:55.941Z,129.80
2017-11-23T19:42:24.887Z,122.10
2017-11-23T19:44:53.760Z,122.70
2017-11-23T19:47:22.598Z,110.90
2017-11-23T19:49:53.340Z,122.27
2017-11-23T19:52:22.200Z,99.03
2017-11-23T19:54:52.650Z,107.23
2017-11-23T19:57:21.661Z,139.70
2017-11-23T19:59:50.529Z,164.00
2017-11-23T20:02:19.380Z,118.43
2017-11-23T20:04:49.170Z,91.07
2017-11-23T20:07:18.049Z,75.47
2017-11-23T20:09:46.936Z,71.67
2017-11-23T20:12:16.644Z,63.60
2017-11-23T20:14:45.488Z,69.40
2017-11-23T20:17:14.502Z,66.10
2017-11-23T20:19:43.517Z,144.23
2017-11-23T20:22:12.437Z,79.13
2017-11-23T20:24:41.379Z,66.93
2017-11-23T20:27:10.488Z,55.03
2017-11-23T20:29:39.382Z,91.40
2017-11-23T20:32:13.169Z,64.30
2017-11-23T20:34:44.072Z,83.47
2017-11-23T20:37:12.885Z,83.40
2017-11-23T20:39:41.815Z,84.87
2017-11-23T20:42:11.560Z,78.10
2017-11-23T20:44:40.846Z,64.77
2017-11-23T20:47:09.701Z,50.83
2017-11-23T20:49:46.691Z,46.50
2017-11-23T20:52:16.907Z,59.53
2017-11-23T20:54:45.854Z,75.70
2017-11-23T20:57:14.987Z,88.50
2017-11-23T20:59:43.825Z,85.93
2017-11-23T21:02:12.663Z,71.43
2017-11-23T21:04:43.426Z,58.50
2017-11-23T21:07:12.372Z,50.53
2017-11-23T21:09:41.188Z,46.87
2017-11-23T21:12:10.963Z,49.37
2017-11-23T21:14:39.904Z,49.90
2017-11-23T21:17:08.761Z,56.20
2017-11-23T21:19:37.849Z,55.03
2017-11-23T21:22:06.777Z,63.00
2017-11-23T21:24:36.461Z,62.33
2017-11-23T21:27:05.497Z,62.93
2017-11-23T21:29:34.517Z,68.80
2017-11-23T21:32:03.377Z,80.23
2017-11-23T21:34:33.203Z,65.77
2017-11-23T21:37:01.996Z,66.00
2017-11-23T21:39:31.098Z,61.37
2017-11-23T21:42:00.904Z,63.13
2017-11-23T21:44:29.749Z,60.03
2017-11-23T21:46:58.590Z,54.50
2017-11-23T21:49:27.622Z,52.40
2017-11-23T21:51:56.489Z,48.30
2017-11-23T21:54:25.399Z,57.30
2017-11-23T21:56:55.434Z,70.50
2017-11-23T21:59:24.264Z,64.40
2017-11-23T22:01:53.125Z,65.67
2017-11-23T22:04:22.243Z,73.20
2017-11-23T22:06:51.297Z,65.10
2017-11-23T22:09:20.143Z,69.70
2017-11-23T22:11:49.127Z,57.63
2017-11-23T22:14:18.238Z,58.17
2017-11-23T22:16:47.180Z,49.73
2017-11-23T22:19:16.376Z,51.77
2017-11-23T22:21:45.437Z,51.77
2017-11-23T22:24:14.295Z,47.90
2017-11-23T22:26:43.338Z,47.80
2017-11-23T22:29:12.162Z,42.20
2017-11-23T22:31:41.013Z,46.87
2017-11-23T22:34:09.923Z,46.00
2017-11-23T22:36:38.811Z,42.93
2017-11-23T22:39:07.862Z,36.23
2017-11-23T22:41:36.895Z,37.63
2017-11-23T22:44:05.815Z,35.20
2017-11-23T22:46:34.654Z,39.00
2017-11-23T22:49:04.596Z,37.37
2017-11-23T22:51:33.425Z,36.50
2017-11-23T22:54:02.253Z,43.23
2017-11-23T22:56:31.366Z,41.20
2017-11-23T22:59:00.301Z,33.23
2017-11-23T23:01:29.132Z,33.80
2017-11-23T23:03:58.865Z,35.80
2017-11-23T23:06:27.736Z,38.43
2017-11-23T23:08:56.603Z,42.60
2017-11-23T23:11:25.570Z,42.37
2017-11-23T23:13:54.468Z,41.20
2017-11-23T23:16:23.414Z,37.13
2017-11-23T23:18:52.296Z,39.27
2017-11-23T23:21:21.114Z,38.73
2017-11-23T23:23:49.918Z,34.90
2017-11-23T23:26:18.833Z,43.80
2017-11-23T23:28:47.699Z,41.90
2017-11-23T23:31:16.612Z,42.07
2017-11-23T23:33:46.623Z,38.17
2017-11-23T23:36:15.582Z,38.47
2017-11-23T23:38:44.472Z,35.60
2017-11-23T23:41:13.387Z,31.27
2017-11-23T23:43:42.418Z,34.40
2017-11-23T23:46:12.565Z,34.70
2017-11-23T23:48:42.477Z,31.50
2017-11-23T23:51:11.286Z,41.30
2017-11-23T23:53:41.020Z,38.83
2017-11-23T23:56:10.749Z,36.47
2017-11-23T23:58:39.750Z,39.50
